createdAt,value
2022-12-01T00:01:18.010Z,31.55
2022-12-01T00:03:44.673Z,36.33
2022-12-01T00:06:16.775Z,33.47
2022-12-01T00:09:03.912Z,32.88
2022-12-01T00:11:30.794Z,38.35
2022-12-01T00:13:57.414Z,36.75
2022-12-01T00:16:24.013Z,33.27
2022-12-01T00:18:52.197Z,28.58
2022-12-01T00:21:31.900Z,37.47
2022-12-01T00:23:58.461Z,37.88
2022-12-01T00:26:26.757Z,36.28
2022-12-01T00:28:55.545Z,33.93
2022-12-01T00:31:23.379Z,39.47
2022-12-01T00:33:50.398Z,33.17
2022-12-01T00:36:17.307Z,29.13
2022-12-01T00:38:43.771Z,32.03
2022-12-01T00:41:10.902Z,33.63
2022-12-01T00:43:37.461Z,35.00
2022-12-01T00:46:04.037Z,38.05
2022-12-01T00:48:30.652Z,34.10
2022-12-01T00:50:57.093Z,39.85
2022-12-01T00:53:24.481Z,33.07
2022-12-01T00:55:54.245Z,33.63
2022-12-01T00:58:22.316Z,33.05
2022-12-01T01:09:57.402Z,39.50
2022-12-01T01:12:23.835Z,33.28
2022-12-01T01:14:50.517Z,29.55
2022-12-01T01:17:17.026Z,30.48
2022-12-01T01:19:47.932Z,39.30
2022-12-01T01:22:14.631Z,27.15
2022-12-01T01:24:41.112Z,31.60
2022-12-01T01:27:07.898Z,29.00
2022-12-01T01:29:34.361Z,34.15
2022-12-01T01:32:00.840Z,30.90
2022-12-01T01:34:27.617Z,34.75
2022-12-01T01:36:54.115Z,32.80
2022-12-01T01:39:21.243Z,28.83
2022-12-01T01:41:48.129Z,31.73
2022-12-01T01:44:50.774Z,29.17
2022-12-01T01:47:29.151Z,25.88
2022-12-01T01:49:57.632Z,31.42
2022-12-01T01:52:24.982Z,30.73
2022-12-01T01:54:54.776Z,35.25
2022-12-01T01:57:27.247Z,35.03
2022-12-01T01:59:59.228Z,26.02
2022-12-01T02:02:25.863Z,36.45
2022-12-01T02:04:59.992Z,35.33
2022-12-01T02:07:27.139Z,38.50
2022-12-01T02:09:55.209Z,33.90
2022-12-01T02:12:28.908Z,37.35
2022-12-01T02:15:54.356Z,33.28
2022-12-01T02:19:16.401Z,35.05
2022-12-01T02:22:03.622Z,34.30
2022-12-01T02:24:50.688Z,41.60
2022-12-01T02:27:37.788Z,34.13
2022-12-01T02:30:09.566Z,38.28
2022-12-01T02:32:42.570Z,36.88
2022-12-01T02:35:27.317Z,40.88
2022-12-01T02:38:13.005Z,36.13
2022-12-01T02:41:02.777Z,37.20
2022-12-01T02:43:33.837Z,35.47
2022-12-01T02:46:13.039Z,35.90
2022-12-01T02:48:43.548Z,35.70
2022-12-01T02:51:16.394Z,34.53
2022-12-01T02:53:43.458Z,34.47
2022-12-01T02:56:13.350Z,35.85
2022-12-01T02:58:39.766Z,41.85
2022-12-01T03:01:24.885Z,39.83
2022-12-01T03:04:02.621Z,44.27
2022-12-01T03:07:02.412Z,37.30
2022-12-01T03:09:54.951Z,40.22
2022-12-01T03:12:49.550Z,36.78
2022-12-01T03:15:26.366Z,42.70
2022-12-01T03:18:01.959Z,34.40
2022-12-01T03:20:37.023Z,38.40
2022-12-01T03:23:17.591Z,38.40
2022-12-01T03:25:49.149Z,30.77
2022-12-01T03:28:22.889Z,31.02
2022-12-01T03:30:55.598Z,34.27
2022-12-01T03:33:29.019Z,44.55
2022-12-01T03:36:19.542Z,37.35
2022-12-01T03:38:57.235Z,35.05
2022-12-01T03:41:29.726Z,36.63
2022-12-01T03:44:05.943Z,36.23
2022-12-01T03:46:44.609Z,38.10
2022-12-01T03:49:12.812Z,36.72
2022-12-01T03:52:00.715Z,39.47
2022-12-01T03:54:39.369Z,31.55
2022-12-01T03:57:11.414Z,35.40
2022-12-01T03:59:41.521Z,34.47
2022-12-01T04:02:08.415Z,39.40
2022-12-01T04:04:39.497Z,32.90
2022-12-01T04:07:06.091Z,33.83
2022-12-01T04:09:32.605Z,31.97
2022-12-01T04:12:18.059Z,39.00
2022-12-01T04:14:44.388Z,37.40
2022-12-01T04:17:10.835Z,41.50
2022-12-01T04:19:37.336Z,36.05
2022-12-01T04:22:03.755Z,35.90
2022-12-01T04:24:30.380Z,40.58
2022-12-01T04:26:56.859Z,37.33
2022-12-01T04:29:23.958Z,38.85
2022-12-01T04:31:50.464Z,36.63
2022-12-01T04:34:17.154Z,40.63
2022-12-01T04:36:43.653Z,37.47
2022-12-01T04:39:10.101Z,38.10
2022-12-01T04:41:36.746Z,38.05
2022-12-01T04:44:03.391Z,34.03
2022-12-01T04:46:30.569Z,38.70
2022-12-01T04:48:57.027Z,35.40
2022-12-01T04:51:23.508Z,39.10
2022-12-01T04:53:50.996Z,38.65
2022-12-01T04:56:17.608Z,38.72
2022-12-01T04:58:44.373Z,36.80
2022-12-01T05:01:13.584Z,37.90
2022-12-01T05:03:42.362Z,41.90
2022-12-01T05:06:15.212Z,39.50
2022-12-01T05:08:42.767Z,34.88
2022-12-01T05:11:15.499Z,37.33
2022-12-01T05:13:45.989Z,41.22
2022-12-01T05:16:21.129Z,40.90
2022-12-01T05:19:14.610Z,45.17
2022-12-01T05:21:43.678Z,40.95
2022-12-01T05:24:11.677Z,38.53
2022-12-01T05:26:39.425Z,41.75
2022-12-01T05:29:10.017Z,36.90
2022-12-01T05:31:39.657Z,39.95
2022-12-01T05:34:07.698Z,38.63
2022-12-01T05:36:37.160Z,39.67
2022-12-01T05:39:12.140Z,37.72
2022-12-01T05:41:39.539Z,37.85
2022-12-01T05:44:12.388Z,45.58
2022-12-01T05:46:38.900Z,39.28
2022-12-01T05:49:10.639Z,39.47
2022-12-01T05:51:39.045Z,43.03
2022-12-01T05:54:05.678Z,50.72
2022-12-01T05:56:32.213Z,34.95
2022-12-01T05:59:04.002Z,46.53
2022-12-01T06:01:30.639Z,46.30
2022-12-01T06:03:58.025Z,37.50
2022-12-01T06:06:24.682Z,47.53
2022-12-01T06:08:54.040Z,47.55
2022-12-01T06:11:28.754Z,49.58
2022-12-01T06:13:55.379Z,39.80
2022-12-01T06:16:23.519Z,42.75
2022-12-01T06:18:50.058Z,42.55
2022-12-01T06:21:16.975Z,40.42
2022-12-01T06:23:44.479Z,38.47
2022-12-01T06:26:11.059Z,46.30
2022-12-01T06:28:37.619Z,44.38
2022-12-01T06:31:04.186Z,39.80
2022-12-01T06:33:31.963Z,41.92
2022-12-01T06:36:04.735Z,53.15
2022-12-01T06:38:34.237Z,34.93
2022-12-01T06:41:01.071Z,49.78
2022-12-01T06:43:27.633Z,45.45
2022-12-01T06:46:00.824Z,42.30
2022-12-01T06:48:28.292Z,47.47
2022-12-01T06:51:00.398Z,47.47
2022-12-01T06:53:28.547Z,48.03
2022-12-01T06:56:03.021Z,48.95
2022-12-01T06:58:30.385Z,44.72
2022-12-01T07:00:59.030Z,40.00
2022-12-01T07:03:25.812Z,45.97
2022-12-01T07:06:00.489Z,45.67
2022-12-01T07:08:28.476Z,50.85
2022-12-01T07:11:03.811Z,49.67
2022-12-01T07:13:33.727Z,46.75
2022-12-01T07:16:04.775Z,42.40
2022-12-01T07:18:32.134Z,53.22
2022-12-01T07:21:01.080Z,45.35
2022-12-01T07:23:28.021Z,53.50
2022-12-01T07:26:06.056Z,40.88
2022-12-01T07:28:33.054Z,47.80
2022-12-01T07:31:04.869Z,47.22
2022-12-01T07:33:31.699Z,47.08
2022-12-01T07:35:58.569Z,49.05
2022-12-01T07:38:25.360Z,47.75
2022-12-01T07:40:51.827Z,51.13
2022-12-01T07:43:18.275Z,50.63
2022-12-01T07:45:44.796Z,62.80
2022-12-01T07:48:11.415Z,52.20
2022-12-01T07:50:37.952Z,44.22
2022-12-01T07:53:04.414Z,52.67
2022-12-01T07:55:30.806Z,55.65
2022-12-01T07:57:59.730Z,53.10
2022-12-01T08:00:26.273Z,48.15
2022-12-01T08:02:52.843Z,58.75
2022-12-01T08:05:19.237Z,44.67
2022-12-01T08:07:45.796Z,52.08
2022-12-01T08:10:12.396Z,50.22
2022-12-01T08:12:40.792Z,52.35
2022-12-01T08:15:07.669Z,48.95
2022-12-01T08:17:34.044Z,41.43
2022-12-01T08:20:00.510Z,58.58
2022-12-01T08:22:26.946Z,47.85
2022-12-01T08:25:01.123Z,48.75
2022-12-01T08:27:27.616Z,55.38
2022-12-01T08:29:54.091Z,48.20
2022-12-01T08:32:20.481Z,52.35
2022-12-01T08:34:55.682Z,54.50
2022-12-01T08:37:22.232Z,43.63
2022-12-01T08:39:49.066Z,49.83
2022-12-01T08:51:24.768Z,57.70
2022-12-01T08:53:51.863Z,51.17
2022-12-01T08:56:29.650Z,54.83
2022-12-01T08:58:56.637Z,51.25
2022-12-01T09:01:23.465Z,52.85
2022-12-01T09:04:04.992Z,55.65
2022-12-01T09:06:34.309Z,47.20
2022-12-01T09:09:00.934Z,47.60
2022-12-01T09:11:27.481Z,46.42
2022-12-01T09:13:54.792Z,49.38
2022-12-01T09:16:21.840Z,54.00
2022-12-01T09:18:48.644Z,61.97
2022-12-01T09:21:22.735Z,53.90
2022-12-01T09:23:50.180Z,56.75
2022-12-01T09:26:19.082Z,49.15
2022-12-01T09:28:46.614Z,60.83
2022-12-01T09:31:14.346Z,57.78
2022-12-01T09:33:41.003Z,51.17
2022-12-01T09:36:08.920Z,43.65
2022-12-01T09:38:36.752Z,54.20
2022-12-01T09:41:08.984Z,50.63
2022-12-01T09:44:01.233Z,54.97
2022-12-01T09:46:41.369Z,59.30
2022-12-01T09:49:16.799Z,45.60
2022-12-01T09:51:43.410Z,55.50
2022-12-01T09:54:13.764Z,49.53
2022-12-01T09:56:45.375Z,51.72
2022-12-01T09:59:22.541Z,58.07
2022-12-01T10:01:54.858Z,52.70
2022-12-01T10:04:30.855Z,54.50
2022-12-01T10:07:06.552Z,48.95
2022-12-01T10:09:41.694Z,51.33
2022-12-01T10:12:20.014Z,53.03
2022-12-01T10:14:48.614Z,54.65
2022-12-01T10:17:17.968Z,39.90
2022-12-01T10:20:14.320Z,53.05
2022-12-01T10:23:05.639Z,51.97
2022-12-01T10:26:14.028Z,53.57
2022-12-01T10:29:07.048Z,53.90
2022-12-01T10:31:45.422Z,46.47
2022-12-01T10:34:21.339Z,51.67
2022-12-01T10:36:48.325Z,56.33
2022-12-01T10:39:19.901Z,49.57
2022-12-01T10:41:48.849Z,52.97
2022-12-01T10:44:17.432Z,50.35
2022-12-01T10:46:54.603Z,54.92
2022-12-01T10:49:35.203Z,48.30
2022-12-01T10:52:02.188Z,53.43
2022-12-01T10:54:46.866Z,48.78
2022-12-01T10:57:17.808Z,55.17
2022-12-01T10:59:51.998Z,48.17
2022-12-01T11:02:24.090Z,59.20
2022-12-01T11:04:57.470Z,51.93
2022-12-01T11:07:28.120Z,55.85
2022-12-01T11:10:00.442Z,48.88
2022-12-01T11:12:27.085Z,52.33
2022-12-01T11:14:58.929Z,52.22
2022-12-01T11:17:45.582Z,51.63
2022-12-01T11:21:07.754Z,50.42
2022-12-01T11:24:00.619Z,64.63
2022-12-01T11:26:31.713Z,50.28
2022-12-01T11:29:07.899Z,52.05
2022-12-01T11:31:47.972Z,50.97
2022-12-01T11:34:22.313Z,47.17
2022-12-01T11:36:51.584Z,47.92
2022-12-01T11:39:27.998Z,47.15
2022-12-01T11:42:00.428Z,41.90
2022-12-01T11:44:50.369Z,38.00
2022-12-01T11:47:23.601Z,40.97
2022-12-01T11:49:59.244Z,44.90
2022-12-01T11:52:36.324Z,47.67
2022-12-01T11:55:21.436Z,51.60
2022-12-01T11:57:52.021Z,49.63
2022-12-01T12:00:24.614Z,46.25
2022-12-01T12:02:56.664Z,43.53
2022-12-01T12:06:05.916Z,43.65
2022-12-01T12:08:43.829Z,42.80
2022-12-01T12:11:39.574Z,46.20
2022-12-01T12:14:22.202Z,54.92
2022-12-01T12:17:00.725Z,54.17
2022-12-01T12:19:33.897Z,50.70
2022-12-01T12:22:12.468Z,48.20
2022-12-01T12:24:44.928Z,48.80
2022-12-01T12:27:22.152Z,46.47
2022-12-01T12:29:49.031Z,45.17
2022-12-01T12:32:46.458Z,49.00
2022-12-01T12:36:17.451Z,45.88
2022-12-01T12:38:56.017Z,40.80
2022-12-01T12:41:46.082Z,42.35
2022-12-01T12:44:43.753Z,41.60
2022-12-01T12:47:26.019Z,42.67
2022-12-01T12:50:17.537Z,35.58
2022-12-01T12:52:49.221Z,36.60
2022-12-01T12:55:35.339Z,47.33
2022-12-01T12:58:11.473Z,40.88
2022-12-01T13:00:49.802Z,33.33
2022-12-01T13:03:16.414Z,42.13
2022-12-01T13:05:57.503Z,31.37
2022-12-01T13:08:35.470Z,33.50
2022-12-01T13:11:10.543Z,40.83
2022-12-01T13:13:39.684Z,56.38
2022-12-01T13:16:13.391Z,86.80
2022-12-01T13:18:52.718Z,45.37
2022-12-01T13:21:24.062Z,41.17
2022-12-01T13:23:52.696Z,44.60
2022-12-01T13:26:22.250Z,40.08
2022-12-01T13:28:56.077Z,41.75
2022-12-01T13:31:23.153Z,37.40
2022-12-01T13:34:02.428Z,37.30
2022-12-01T13:36:48.401Z,36.65
2022-12-01T13:39:35.505Z,39.42
2022-12-01T13:42:23.909Z,35.30
2022-12-01T13:45:00.523Z,39.87
2022-12-01T13:47:55.804Z,44.58
2022-12-01T13:50:49.481Z,40.50
2022-12-01T13:53:18.807Z,35.90
2022-12-01T13:56:20.068Z,33.22
2022-12-01T13:58:54.168Z,37.13
2022-12-01T14:01:23.521Z,33.70
2022-12-01T14:04:01.196Z,38.80
2022-12-01T14:06:32.137Z,32.28
2022-12-01T14:09:22.014Z,29.00
2022-12-01T14:12:07.020Z,35.03
2022-12-01T14:14:47.773Z,37.47
2022-12-01T14:17:33.672Z,39.67
2022-12-01T14:20:22.902Z,36.28
2022-12-01T14:23:14.702Z,36.63
2022-12-01T14:25:42.711Z,28.30
2022-12-01T14:28:17.180Z,32.40
2022-12-01T14:30:47.340Z,27.83
2022-12-01T14:33:41.964Z,35.67
2022-12-01T14:36:22.498Z,25.67
2022-12-01T14:39:14.783Z,28.47
2022-12-01T14:41:48.420Z,30.10
2022-12-01T14:44:21.983Z,35.10
2022-12-01T14:47:22.499Z,37.88
2022-12-01T14:50:18.047Z,35.25
2022-12-01T14:52:49.031Z,36.60
2022-12-01T14:55:40.577Z,34.45
2022-12-01T14:58:18.226Z,36.28
2022-12-01T15:01:03.917Z,33.97
2022-12-01T15:03:36.526Z,34.80
2022-12-01T15:06:03.434Z,30.80
2022-12-01T15:08:53.247Z,33.13
2022-12-01T15:11:30.297Z,37.75
2022-12-01T15:14:00.112Z,32.70
2022-12-01T15:16:30.868Z,35.13
2022-12-01T15:18:58.145Z,33.93
2022-12-01T15:21:32.043Z,30.45
2022-12-01T15:24:00.208Z,37.78
2022-12-01T15:26:33.832Z,30.42
2022-12-01T15:29:06.631Z,32.20
2022-12-01T15:31:35.048Z,41.50
2022-12-01T15:34:02.857Z,39.38
2022-12-01T15:36:31.635Z,37.50
2022-12-01T15:39:02.249Z,28.60
2022-12-01T15:41:35.444Z,34.92
2022-12-01T15:44:03.481Z,32.70
2022-12-01T15:46:32.609Z,31.27
2022-12-01T15:49:19.408Z,35.83
2022-12-01T15:51:49.044Z,32.08
2022-12-01T15:54:23.184Z,31.35
2022-12-01T15:56:58.606Z,32.40
2022-12-01T15:59:39.107Z,32.90
2022-12-01T16:02:12.409Z,29.88
2022-12-01T16:04:40.301Z,33.85
2022-12-01T16:07:11.125Z,36.88
2022-12-01T16:09:40.505Z,35.13
2022-12-01T16:12:24.701Z,36.05
2022-12-01T16:14:55.732Z,31.35
2022-12-01T16:17:23.947Z,29.17
2022-12-01T16:20:18.040Z,33.90
2022-12-01T16:22:58.387Z,35.53
2022-12-01T16:25:35.907Z,27.83
2022-12-01T16:28:03.776Z,37.65
2022-12-01T16:30:36.817Z,36.15
2022-12-01T16:33:16.054Z,38.15
2022-12-01T16:35:43.245Z,31.80
2022-12-01T16:38:16.629Z,33.78
2022-12-01T16:40:43.828Z,39.88
2022-12-01T16:43:15.527Z,35.50
2022-12-01T16:45:43.845Z,37.65
2022-12-01T16:48:10.811Z,33.77
2022-12-01T16:50:38.564Z,41.72
2022-12-01T16:53:05.374Z,47.95
2022-12-01T16:55:41.654Z,47.78
2022-12-01T16:58:08.335Z,46.38
2022-12-01T17:00:34.974Z,38.80
2022-12-01T17:03:01.596Z,41.42
2022-12-01T17:05:28.402Z,60.17
2022-12-01T17:07:55.215Z,44.05
2022-12-01T17:10:23.025Z,43.88
2022-12-01T17:12:50.095Z,43.07
2022-12-01T17:15:17.008Z,45.63
2022-12-01T17:17:46.802Z,42.28
2022-12-01T17:20:13.453Z,37.88
2022-12-01T17:22:39.973Z,41.40
2022-12-01T17:25:09.447Z,49.10
2022-12-01T17:27:37.749Z,44.95
2022-12-01T17:30:05.867Z,44.47
2022-12-01T17:32:32.670Z,47.33
2022-12-01T17:34:59.502Z,42.42
2022-12-01T17:37:27.821Z,39.23
2022-12-01T17:39:54.738Z,38.05
2022-12-01T17:42:21.753Z,43.80
2022-12-01T17:44:48.757Z,39.08
2022-12-01T17:47:15.678Z,42.60
2022-12-01T17:49:42.165Z,34.60
2022-12-01T17:52:08.886Z,36.03
2022-12-01T17:54:35.385Z,35.20
2022-12-01T17:57:02.102Z,38.78
2022-12-01T17:59:28.816Z,39.40
2022-12-01T18:01:55.281Z,39.00
2022-12-01T18:04:21.763Z,38.33
2022-12-01T18:06:53.789Z,35.40
2022-12-01T18:09:21.773Z,33.38
2022-12-01T18:11:49.046Z,50.80
2022-12-01T18:14:17.848Z,46.70
2022-12-01T18:16:44.839Z,37.00
2022-12-01T18:19:12.760Z,41.53
2022-12-01T18:21:39.916Z,36.65
2022-12-01T18:24:08.838Z,45.22
2022-12-01T18:26:37.310Z,40.07
2022-12-01T18:29:13.726Z,46.33
2022-12-01T18:31:40.337Z,35.05
2022-12-01T18:34:07.973Z,39.42
2022-12-01T18:36:37.012Z,40.65
2022-12-01T18:39:05.398Z,37.17
2022-12-01T18:41:32.130Z,37.92
2022-12-01T18:43:58.626Z,37.05
2022-12-01T18:46:25.175Z,42.92
2022-12-01T18:48:54.177Z,42.42
2022-12-01T18:51:22.060Z,40.53
2022-12-01T18:53:48.689Z,49.58
2022-12-01T18:56:17.354Z,39.72
2022-12-01T18:58:44.060Z,42.15
2022-12-01T19:01:22.633Z,40.72
2022-12-01T19:03:51.878Z,40.97
2022-12-01T19:06:18.741Z,41.40
2022-12-01T19:08:45.565Z,43.35
2022-12-01T19:11:12.063Z,36.67
2022-12-01T19:13:38.870Z,38.90
2022-12-01T19:16:07.291Z,37.70
2022-12-01T19:18:35.756Z,42.40
2022-12-01T19:21:07.357Z,37.22
2022-12-01T19:23:34.494Z,37.45
2022-12-01T19:26:06.140Z,47.22
2022-12-01T19:28:34.618Z,40.37
2022-12-01T19:31:09.624Z,46.95
2022-12-01T19:33:36.753Z,45.17
2022-12-01T19:36:08.569Z,44.50
2022-12-01T19:38:35.679Z,41.80
2022-12-01T19:41:03.201Z,46.67
2022-12-01T19:43:30.722Z,38.22
2022-12-01T19:45:57.217Z,37.65
2022-12-01T19:48:23.754Z,43.70
2022-12-01T19:50:50.167Z,41.55
2022-12-01T19:53:16.799Z,41.90
2022-12-01T19:55:43.445Z,39.47
2022-12-01T19:58:10.010Z,46.80
2022-12-01T20:00:36.568Z,46.80
2022-12-01T20:03:03.862Z,43.38
2022-12-01T20:05:32.376Z,43.83
2022-12-01T20:07:59.063Z,42.75
2022-12-01T20:10:25.530Z,43.72
2022-12-01T20:12:54.834Z,46.05
2022-12-01T20:15:21.574Z,42.92
2022-12-01T20:17:50.067Z,42.20
2022-12-01T20:20:17.671Z,38.15
2022-12-01T20:22:44.240Z,44.22
2022-12-01T20:25:10.866Z,42.60
2022-12-01T20:27:37.362Z,45.13
2022-12-01T20:30:04.187Z,41.70
2022-12-01T20:32:30.775Z,47.65
2022-12-01T20:34:57.304Z,41.33
2022-12-01T20:37:23.816Z,41.90
2022-12-01T20:39:51.113Z,41.53
2022-12-01T20:42:19.272Z,39.83
2022-12-01T20:44:46.496Z,41.53
2022-12-01T20:47:14.523Z,46.05
2022-12-01T20:49:40.997Z,41.47
2022-12-01T20:52:14.038Z,38.33
2022-12-01T20:54:42.379Z,44.50
2022-12-01T20:57:08.982Z,42.10
2022-12-01T20:59:35.667Z,40.75
2022-12-01T21:02:02.376Z,38.97
2022-12-01T21:04:28.869Z,41.95
2022-12-01T21:06:56.929Z,40.47
2022-12-01T21:09:23.483Z,43.00
2022-12-01T21:12:09.395Z,48.95
2022-12-01T21:14:47.285Z,38.78
2022-12-01T21:17:34.334Z,41.15
2022-12-01T21:20:35.938Z,44.03
2022-12-01T21:23:10.765Z,41.85
2022-12-01T21:25:39.501Z,37.58
2022-12-01T21:28:32.345Z,41.90
2022-12-01T21:31:07.175Z,45.33
2022-12-01T21:33:35.649Z,44.63
2022-12-01T21:36:07.287Z,37.05
2022-12-01T21:38:33.855Z,45.80
2022-12-01T21:41:00.617Z,40.40
2022-12-01T21:43:27.172Z,41.03
2022-12-01T21:46:06.671Z,48.87
2022-12-01T21:48:36.248Z,43.95
2022-12-01T21:51:12.004Z,45.17
2022-12-01T21:53:39.652Z,41.88
2022-12-01T21:56:20.130Z,51.30
2022-12-01T21:58:46.964Z,41.90
2022-12-01T22:01:34.128Z,39.22
2022-12-01T22:04:09.080Z,44.40
2022-12-01T22:06:38.812Z,47.25
2022-12-01T22:09:12.677Z,42.50
2022-12-01T22:11:42.038Z,49.83
2022-12-01T22:14:08.485Z,44.83
2022-12-01T22:16:41.446Z,42.67
2022-12-01T22:19:16.908Z,44.60
2022-12-01T22:21:48.843Z,43.00
2022-12-01T22:24:51.786Z,35.87
2022-12-01T22:27:38.123Z,38.42
2022-12-01T22:30:07.529Z,39.60
2022-12-01T22:32:35.549Z,51.03
2022-12-01T22:35:17.236Z,43.30
2022-12-01T22:37:45.737Z,39.20
2022-12-01T22:40:37.202Z,39.55
2022-12-01T22:43:37.428Z,42.53
2022-12-01T22:46:41.411Z,44.80
2022-12-01T22:49:20.889Z,41.40
2022-12-01T22:51:47.472Z,55.95
2022-12-01T22:54:17.076Z,39.77
2022-12-01T22:56:48.118Z,44.88
2022-12-01T22:59:23.693Z,53.72
2022-12-01T23:01:57.179Z,48.97
2022-12-01T23:04:26.644Z,50.15
2022-12-01T23:10:47.453Z,50.95
2022-12-01T23:13:22.356Z,40.47
2022-12-01T23:15:54.089Z,48.03
2022-12-01T23:30:25.479Z,46.97
2022-12-01T23:33:02.431Z,55.47
2022-12-01T23:35:29.666Z,54.27
2022-12-01T23:37:56.209Z,50.33
2022-12-01T23:40:34.881Z,50.85
2022-12-01T23:43:17.088Z,60.60
2022-12-01T23:45:44.234Z,58.78
2022-12-01T23:48:19.151Z,54.87
2022-12-01T23:50:46.810Z,52.67
2022-12-01T23:53:27.263Z,52.30
2022-12-01T23:55:54.587Z,53.90
2022-12-01T23:58:21.153Z,53.47
